sensor_id;sensor_type;location;lat;lon;timestamp;P1;durP1;ratioP1;P2;durP2;ratioP2
65855;SDS011;52631;42.208;24.656;2022-10-31T00:01:14;7.18;;;2.97;;
65855;SDS011;52631;42.208;24.656;2022-10-31T00:06:10;5.53;;;2.75;;
65855;SDS011;52631;42.208;24.656;2022-10-31T00:08:36;6.07;;;2.72;;
65855;SDS011;52631;42.208;24.656;2022-10-31T00:11:01;8.82;;;2.65;;
65855;SDS011;52631;42.208;24.656;2022-10-31T00:13:27;7.43;;;2.67;;
65855;SDS011;52631;42.208;24.656;2022-10-31T00:15:52;7.65;;;3.03;;
65855;SDS011;52631;42.208;24.656;2022-10-31T00:18:18;5.40;;;2.70;;
65855;SDS011;52631;42.208;24.656;2022-10-31T00:20:43;6.53;;;2.97;;
65855;SDS011;52631;42.208;24.656;2022-10-31T00:23:09;5.38;;;2.70;;
65855;SDS011;52631;42.208;24.656;2022-10-31T00:25:36;9.52;;;2.95;;
65855;SDS011;52631;42.208;24.656;2022-10-31T00:28:03;6.63;;;3.47;;
65855;SDS011;52631;42.208;24.656;2022-10-31T00:30:29;10.25;;;3.20;;
65855;SDS011;52631;42.208;24.656;2022-10-31T00:32:55;6.00;;;2.78;;
65855;SDS011;52631;42.208;24.656;2022-10-31T00:35:20;6.20;;;2.60;;
65855;SDS011;52631;42.208;24.656;2022-10-31T00:37:46;4.70;;;2.78;;
65855;SDS011;52631;42.208;24.656;2022-10-31T00:40:11;7.40;;;2.88;;
65855;SDS011;52631;42.208;24.656;2022-10-31T00:42:36;4.70;;;2.75;;
65855;SDS011;52631;42.208;24.656;2022-10-31T00:45:02;6.55;;;3.35;;
65855;SDS011;52631;42.208;24.656;2022-10-31T00:47:28;6.60;;;2.80;;
65855;SDS011;52631;42.208;24.656;2022-10-31T00:49:53;9.30;;;3.08;;
65855;SDS011;52631;42.208;24.656;2022-10-31T00:52:19;7.68;;;3.08;;
65855;SDS011;52631;42.208;24.656;2022-10-31T00:54:44;5.45;;;2.85;;
65855;SDS011;52631;42.208;24.656;2022-10-31T00:57:10;7.03;;;3.22;;
65855;SDS011;52631;42.208;24.656;2022-10-31T00:59:35;5.82;;;2.70;;
65855;SDS011;52631;42.208;24.656;2022-10-31T01:02:00;7.40;;;3.45;;
65855;SDS011;52631;42.208;24.656;2022-10-31T01:04:26;6.55;;;2.53;;
65855;SDS011;52631;42.208;24.656;2022-10-31T01:06:51;9.23;;;2.88;;
65855;SDS011;52631;42.208;24.656;2022-10-31T01:09:17;5.45;;;2.90;;
65855;SDS011;52631;42.208;24.656;2022-10-31T01:11:42;5.50;;;2.80;;
65855;SDS011;52631;42.208;24.656;2022-10-31T01:14:08;4.57;;;2.78;;
65855;SDS011;52631;42.208;24.656;2022-10-31T01:16:34;8.80;;;3.45;;
65855;SDS011;52631;42.208;24.656;2022-10-31T01:18:59;8.68;;;3.78;;
65855;SDS011;52631;42.208;24.656;2022-10-31T01:21:25;6.85;;;3.30;;
65855;SDS011;52631;42.208;24.656;2022-10-31T01:23:52;5.93;;;2.90;;
65855;SDS011;52631;42.208;24.656;2022-10-31T01:26:20;5.00;;;2.50;;
65855;SDS011;52631;42.208;24.656;2022-10-31T01:28:51;8.07;;;3.50;;
65855;SDS011;52631;42.208;24.656;2022-10-31T01:31:30;7.03;;;2.53;;
65855;SDS011;52631;42.208;24.656;2022-10-31T01:33:57;5.70;;;2.53;;
65855;SDS011;52631;42.208;24.656;2022-10-31T01:36:30;8.27;;;2.70;;
65855;SDS011;52631;42.208;24.656;2022-10-31T01:38:58;6.85;;;2.85;;
65855;SDS011;52631;42.208;24.656;2022-10-31T01:41:26;5.65;;;2.88;;
65855;SDS011;52631;42.208;24.656;2022-10-31T01:43:57;6.32;;;2.78;;
65855;SDS011;52631;42.208;24.656;2022-10-31T01:46:24;7.60;;;2.70;;
65855;SDS011;52631;42.208;24.656;2022-10-31T01:49:12;6.07;;;2.35;;
65855;SDS011;52631;42.208;24.656;2022-10-31T01:51:58;5.07;;;2.30;;
65855;SDS011;52631;42.208;24.656;2022-10-31T01:54:29;7.32;;;2.85;;
65855;SDS011;52631;42.208;24.656;2022-10-31T01:56:57;4.75;;;2.42;;
65855;SDS011;52631;42.208;24.656;2022-10-31T01:59:23;8.85;;;2.50;;
65855;SDS011;52631;42.208;24.656;2022-10-31T02:01:52;6.63;;;2.47;;
65855;SDS011;52631;42.208;24.656;2022-10-31T02:04:19;7.50;;;2.97;;
65855;SDS011;52631;42.208;24.656;2022-10-31T02:06:53;6.72;;;2.65;;
65855;SDS011;52631;42.208;24.656;2022-10-31T02:09:21;5.20;;;2.75;;
65855;SDS011;52631;42.208;24.656;2022-10-31T02:11:49;4.72;;;2.55;;
65855;SDS011;52631;42.208;24.656;2022-10-31T02:14:16;5.78;;;2.70;;
65855;SDS011;52631;42.208;24.656;2022-10-31T02:16:42;5.47;;;2.60;;
65855;SDS011;52631;42.208;24.656;2022-10-31T02:19:07;6.22;;;2.83;;
65855;SDS011;52631;42.208;24.656;2022-10-31T02:21:43;5.93;;;2.42;;
65855;SDS011;52631;42.208;24.656;2022-10-31T02:30:20;6.07;;;2.47;;
65855;SDS011;52631;42.208;24.656;2022-10-31T02:38:42;5.22;;;2.40;;
65855;SDS011;52631;42.208;24.656;2022-10-31T02:41:28;6.18;;;2.72;;
65855;SDS011;52631;42.208;24.656;2022-10-31T02:44:03;6.00;;;2.75;;
65855;SDS011;52631;42.208;24.656;2022-10-31T02:46:45;5.88;;;2.90;;
65855;SDS011;52631;42.208;24.656;2022-10-31T02:51:59;5.93;;;2.40;;
65855;SDS011;52631;42.208;24.656;2022-10-31T02:54:25;4.93;;;2.70;;
65855;SDS011;52631;42.208;24.656;2022-10-31T02:56:53;4.05;;;2.28;;
65855;SDS011;52631;42.208;24.656;2022-10-31T02:59:28;7.63;;;2.80;;
65855;SDS011;52631;42.208;24.656;2022-10-31T03:04:37;7.15;;;2.53;;
65855;SDS011;52631;42.208;24.656;2022-10-31T03:07:25;6.25;;;2.50;;
65855;SDS011;52631;42.208;24.656;2022-10-31T03:15:04;7.75;;;2.30;;
65855;SDS011;52631;42.208;24.656;2022-10-31T03:17:41;5.47;;;2.63;;
65855;SDS011;52631;42.208;24.656;2022-10-31T03:20:10;4.82;;;2.60;;
65855;SDS011;52631;42.208;24.656;2022-10-31T03:22:35;5.97;;;2.47;;
65855;SDS011;52631;42.208;24.656;2022-10-31T03:25:03;5.28;;;2.40;;
65855;SDS011;52631;42.208;24.656;2022-10-31T03:27:30;4.85;;;2.50;;
65855;SDS011;52631;42.208;24.656;2022-10-31T03:29:59;4.97;;;2.20;;
65855;SDS011;52631;42.208;24.656;2022-10-31T03:32:27;4.97;;;2.15;;
65855;SDS011;52631;42.208;24.656;2022-10-31T03:34:57;6.65;;;2.72;;
65855;SDS011;52631;42.208;24.656;2022-10-31T03:37:24;5.95;;;2.40;;
65855;SDS011;52631;42.208;24.656;2022-10-31T03:39:52;5.07;;;2.28;;
65855;SDS011;52631;42.208;24.656;2022-10-31T03:42:25;8.10;;;2.80;;
65855;SDS011;52631;42.208;24.656;2022-10-31T03:45:02;6.28;;;2.47;;
65855;SDS011;52631;42.208;24.656;2022-10-31T03:47:30;7.93;;;3.33;;
65855;SDS011;52631;42.208;24.656;2022-10-31T03:49:55;8.02;;;2.28;;
65855;SDS011;52631;42.208;24.656;2022-10-31T03:54:58;6.60;;;2.47;;
65855;SDS011;52631;42.208;24.656;2022-10-31T03:57:31;5.00;;;2.50;;
65855;SDS011;52631;42.208;24.656;2022-10-31T04:00:04;9.90;;;2.78;;
65855;SDS011;52631;42.208;24.656;2022-10-31T04:02:32;6.32;;;2.72;;
65855;SDS011;52631;42.208;24.656;2022-10-31T04:04:59;6.68;;;2.50;;
65855;SDS011;52631;42.208;24.656;2022-10-31T04:07:26;5.70;;;2.70;;
65855;SDS011;52631;42.208;24.656;2022-10-31T04:09:55;5.72;;;2.47;;
65855;SDS011;52631;42.208;24.656;2022-10-31T04:12:22;9.95;;;2.70;;
65855;SDS011;52631;42.208;24.656;2022-10-31T04:14:49;9.98;;;3.05;;
65855;SDS011;52631;42.208;24.656;2022-10-31T04:17:16;5.82;;;2.45;;
65855;SDS011;52631;42.208;24.656;2022-10-31T04:19:43;5.00;;;2.40;;
65855;SDS011;52631;42.208;24.656;2022-10-31T04:22:09;5.85;;;2.60;;
65855;SDS011;52631;42.208;24.656;2022-10-31T04:24:35;9.07;;;2.70;;
65855;SDS011;52631;42.208;24.656;2022-10-31T04:27:02;7.50;;;2.80;;
65855;SDS011;52631;42.208;24.656;2022-10-31T04:29:28;4.78;;;2.03;;
65855;SDS011;52631;42.208;24.656;2022-10-31T04:31:53;9.60;;;2.63;;
65855;SDS011;52631;42.208;24.656;2022-10-31T04:34:19;7.03;;;3.13;;
65855;SDS011;52631;42.208;24.656;2022-10-31T04:36:44;8.60;;;3.67;;
65855;SDS011;52631;42.208;24.656;2022-10-31T04:39:09;4.88;;;2.88;;
65855;SDS011;52631;42.208;24.656;2022-10-31T04:41:35;6.68;;;3.17;;
65855;SDS011;52631;42.208;24.656;2022-10-31T04:44:00;11.02;;;3.03;;
65855;SDS011;52631;42.208;24.656;2022-10-31T04:46:26;6.75;;;2.90;;
65855;SDS011;52631;42.208;24.656;2022-10-31T04:48:51;6.28;;;2.63;;
65855;SDS011;52631;42.208;24.656;2022-10-31T04:51:17;4.97;;;2.72;;
65855;SDS011;52631;42.208;24.656;2022-10-31T04:53:42;8.18;;;2.78;;
65855;SDS011;52631;42.208;24.656;2022-10-31T04:56:07;5.18;;;2.65;;
65855;SDS011;52631;42.208;24.656;2022-10-31T04:58:33;7.70;;;3.03;;
65855;SDS011;52631;42.208;24.656;2022-10-31T05:00:58;6.35;;;3.05;;
65855;SDS011;52631;42.208;24.656;2022-10-31T05:03:24;8.80;;;3.15;;
65855;SDS011;52631;42.208;24.656;2022-10-31T05:05:49;5.18;;;2.80;;
65855;SDS011;52631;42.208;24.656;2022-10-31T05:08:15;7.75;;;3.05;;
65855;SDS011;52631;42.208;24.656;2022-10-31T05:10:41;6.05;;;2.63;;
65855;SDS011;52631;42.208;24.656;2022-10-31T05:13:06;8.27;;;2.72;;
65855;SDS011;52631;42.208;24.656;2022-10-31T05:15:32;4.68;;;2.67;;
65855;SDS011;52631;42.208;24.656;2022-10-31T05:17:58;7.53;;;2.90;;
65855;SDS011;52631;42.208;24.656;2022-10-31T05:20:25;9.38;;;2.92;;
65855;SDS011;52631;42.208;24.656;2022-10-31T05:22:52;8.00;;;3.30;;
65855;SDS011;52631;42.208;24.656;2022-10-31T05:25:19;8.15;;;2.80;;
65855;SDS011;52631;42.208;24.656;2022-10-31T05:27:46;8.00;;;2.85;;
65855;SDS011;52631;42.208;24.656;2022-10-31T05:30:14;7.20;;;2.92;;
65855;SDS011;52631;42.208;24.656;2022-10-31T05:32:43;5.60;;;2.67;;
65855;SDS011;52631;42.208;24.656;2022-10-31T05:35:10;4.93;;;2.42;;
65855;SDS011;52631;42.208;24.656;2022-10-31T05:37:40;6.78;;;2.83;;
65855;SDS011;52631;42.208;24.656;2022-10-31T05:40:06;7.97;;;2.80;;
65855;SDS011;52631;42.208;24.656;2022-10-31T05:42:33;13.82;;;3.45;;
65855;SDS011;52631;42.208;24.656;2022-10-31T05:44:59;11.10;;;3.20;;
65855;SDS011;52631;42.208;24.656;2022-10-31T05:47:25;8.05;;;3.38;;
65855;SDS011;52631;42.208;24.656;2022-10-31T05:49:50;10.10;;;3.60;;
65855;SDS011;52631;42.208;24.656;2022-10-31T05:52:16;6.65;;;2.88;;
65855;SDS011;52631;42.208;24.656;2022-10-31T05:54:42;5.25;;;2.70;;
65855;SDS011;52631;42.208;24.656;2022-10-31T05:57:07;6.45;;;2.75;;
65855;SDS011;52631;42.208;24.656;2022-10-31T05:59:33;7.68;;;2.75;;
65855;SDS011;52631;42.208;24.656;2022-10-31T06:01:58;12.05;;;2.45;;
65855;SDS011;52631;42.208;24.656;2022-10-31T06:04:23;8.40;;;2.88;;
65855;SDS011;52631;42.208;24.656;2022-10-31T06:06:49;13.73;;;3.15;;
65855;SDS011;52631;42.208;24.656;2022-10-31T06:09:14;11.52;;;3.13;;
65855;SDS011;52631;42.208;24.656;2022-10-31T06:11:40;10.95;;;2.80;;
65855;SDS011;52631;42.208;24.656;2022-10-31T06:14:05;6.35;;;3.00;;
65855;SDS011;52631;42.208;24.656;2022-10-31T06:16:31;8.98;;;2.95;;
65855;SDS011;52631;42.208;24.656;2022-10-31T06:18:56;7.00;;;3.38;;
65855;SDS011;52631;42.208;24.656;2022-10-31T06:21:22;7.57;;;2.70;;
65855;SDS011;52631;42.208;24.656;2022-10-31T06:23:48;12.82;;;3.33;;
65855;SDS011;52631;42.208;24.656;2022-10-31T06:26:13;7.47;;;3.20;;
65855;SDS011;52631;42.208;24.656;2022-10-31T06:28:38;7.47;;;3.30;;
65855;SDS011;52631;42.208;24.656;2022-10-31T06:31:04;8.75;;;2.85;;
65855;SDS011;52631;42.208;24.656;2022-10-31T06:33:29;9.98;;;3.50;;
65855;SDS011;52631;42.208;24.656;2022-10-31T06:35:55;11.00;;;2.88;;
65855;SDS011;52631;42.208;24.656;2022-10-31T06:38:20;7.53;;;3.10;;
65855;SDS011;52631;42.208;24.656;2022-10-31T06:40:46;13.20;;;3.45;;
65855;SDS011;52631;42.208;24.656;2022-10-31T06:43:11;13.32;;;4.15;;
65855;SDS011;52631;42.208;24.656;2022-10-31T06:45:37;11.85;;;4.30;;
65855;SDS011;52631;42.208;24.656;2022-10-31T06:48:03;10.80;;;3.30;;
65855;SDS011;52631;42.208;24.656;2022-10-31T06:50:28;9.43;;;3.10;;
65855;SDS011;52631;42.208;24.656;2022-10-31T06:52:55;6.82;;;3.17;;
65855;SDS011;52631;42.208;24.656;2022-10-31T06:55:21;9.13;;;3.20;;
65855;SDS011;52631;42.208;24.656;2022-10-31T06:57:51;7.35;;;2.67;;
65855;SDS011;52631;42.208;24.656;2022-10-31T07:00:17;9.98;;;3.05;;
65855;SDS011;52631;42.208;24.656;2022-10-31T07:02:52;8.77;;;2.92;;
65855;SDS011;52631;42.208;24.656;2022-10-31T07:05:24;8.37;;;3.20;;
65855;SDS011;52631;42.208;24.656;2022-10-31T07:07:54;7.95;;;2.97;;
65855;SDS011;52631;42.208;24.656;2022-10-31T07:10:20;8.77;;;2.93;;
65855;SDS011;52631;42.208;24.656;2022-10-31T07:12:46;10.38;;;3.10;;
65855;SDS011;52631;42.208;24.656;2022-10-31T07:15:12;8.02;;;3.15;;
65855;SDS011;52631;42.208;24.656;2022-10-31T07:17:38;7.38;;;3.10;;
65855;SDS011;52631;42.208;24.656;2022-10-31T07:20:03;10.70;;;3.20;;
65855;SDS011;52631;42.208;24.656;2022-10-31T07:22:36;12.48;;;3.42;;
65855;SDS011;52631;42.208;24.656;2022-10-31T07:25:01;7.82;;;3.47;;
65855;SDS011;52631;42.208;24.656;2022-10-31T07:27:27;9.30;;;3.70;;
65855;SDS011;52631;42.208;24.656;2022-10-31T07:29:54;8.48;;;3.83;;
65855;SDS011;52631;42.208;24.656;2022-10-31T07:32:19;9.65;;;3.42;;
65855;SDS011;52631;42.208;24.656;2022-10-31T07:34:45;9.15;;;4.30;;
65855;SDS011;52631;42.208;24.656;2022-10-31T07:37:10;13.02;;;3.35;;
65855;SDS011;52631;42.208;24.656;2022-10-31T07:39:36;8.55;;;3.33;;
65855;SDS011;52631;42.208;24.656;2022-10-31T07:42:01;9.90;;;3.35;;
65855;SDS011;52631;42.208;24.656;2022-10-31T07:44:27;9.40;;;3.33;;
65855;SDS011;52631;42.208;24.656;2022-10-31T07:46:52;12.10;;;3.42;;
65855;SDS011;52631;42.208;24.656;2022-10-31T07:49:17;9.02;;;3.22;;
65855;SDS011;52631;42.208;24.656;2022-10-31T07:51:43;10.80;;;3.00;;
65855;SDS011;52631;42.208;24.656;2022-10-31T07:54:08;6.20;;;2.67;;
65855;SDS011;52631;42.208;24.656;2022-10-31T07:56:34;11.00;;;3.17;;
65855;SDS011;52631;42.208;24.656;2022-10-31T07:58:59;12.48;;;3.22;;
65855;SDS011;52631;42.208;24.656;2022-10-31T08:01:25;9.80;;;2.92;;
65855;SDS011;52631;42.208;24.656;2022-10-31T08:03:51;7.25;;;3.20;;
65855;SDS011;52631;42.208;24.656;2022-10-31T08:06:16;13.40;;;3.22;;
65855;SDS011;52631;42.208;24.656;2022-10-31T08:08:41;6.68;;;2.72;;
65855;SDS011;52631;42.208;24.656;2022-10-31T08:11:07;11.13;;;2.75;;
65855;SDS011;52631;42.208;24.656;2022-10-31T08:13:32;6.53;;;2.70;;
65855;SDS011;52631;42.208;24.656;2022-10-31T08:15:58;9.55;;;3.35;;
65855;SDS011;52631;42.208;24.656;2022-10-31T08:18:29;7.22;;;2.90;;
65855;SDS011;52631;42.208;24.656;2022-10-31T08:20:55;10.30;;;3.65;;
65855;SDS011;52631;42.208;24.656;2022-10-31T08:23:20;7.15;;;3.58;;
65855;SDS011;52631;42.208;24.656;2022-10-31T08:25:46;8.40;;;2.70;;
65855;SDS011;52631;42.208;24.656;2022-10-31T08:28:12;12.07;;;3.03;;
65855;SDS011;52631;42.208;24.656;2022-10-31T08:30:38;5.15;;;2.42;;
65855;SDS011;52631;42.208;24.656;2022-10-31T08:33:11;7.93;;;2.55;;
65855;SDS011;52631;42.208;24.656;2022-10-31T08:35:40;7.97;;;2.47;;
65855;SDS011;52631;42.208;24.656;2022-10-31T08:38:06;5.15;;;2.45;;
65855;SDS011;52631;42.208;24.656;2022-10-31T08:40:33;6.80;;;2.80;;
65855;SDS011;52631;42.208;24.656;2022-10-31T08:43:18;5.68;;;2.40;;
65855;SDS011;52631;42.208;24.656;2022-10-31T08:45:44;11.05;;;2.75;;
65855;SDS011;52631;42.208;24.656;2022-10-31T08:48:13;9.05;;;2.95;;
65855;SDS011;52631;42.208;24.656;2022-10-31T08:50:39;6.13;;;2.47;;
65855;SDS011;52631;42.208;24.656;2022-10-31T08:53:06;12.98;;;2.67;;
65855;SDS011;52631;42.208;24.656;2022-10-31T08:55:54;7.68;;;2.97;;
65855;SDS011;52631;42.208;24.656;2022-10-31T08:58:20;6.85;;;2.47;;
65855;SDS011;52631;42.208;24.656;2022-10-31T09:00:46;5.72;;;2.70;;
65855;SDS011;52631;42.208;24.656;2022-10-31T09:03:14;9.02;;;2.22;;
65855;SDS011;52631;42.208;24.656;2022-10-31T09:05:50;6.57;;;2.03;;
65855;SDS011;52631;42.208;24.656;2022-10-31T09:08:16;6.22;;;2.10;;
65855;SDS011;52631;42.208;24.656;2022-10-31T09:10:42;11.60;;;3.03;;
65855;SDS011;52631;42.208;24.656;2022-10-31T09:13:11;5.30;;;2.22;;
65855;SDS011;52631;42.208;24.656;2022-10-31T09:15:39;6.97;;;2.47;;
65855;SDS011;52631;42.208;24.656;2022-10-31T09:18:05;6.43;;;2.22;;
65855;SDS011;52631;42.208;24.656;2022-10-31T09:20:32;6.60;;;2.40;;
65855;SDS011;52631;42.208;24.656;2022-10-31T09:22:59;6.60;;;2.40;;
65855;SDS011;52631;42.208;24.656;2022-10-31T09:25:25;7.00;;;2.40;;
65855;SDS011;52631;42.208;24.656;2022-10-31T09:27:54;5.88;;;2.58;;
65855;SDS011;52631;42.208;24.656;2022-10-31T09:30:24;8.55;;;2.63;;
65855;SDS011;52631;42.208;24.656;2022-10-31T09:33:03;36.42;;;5.35;;
65855;SDS011;52631;42.208;24.656;2022-10-31T09:35:30;7.10;;;2.40;;
65855;SDS011;52631;42.208;24.656;2022-10-31T09:37:56;9.40;;;2.90;;
65855;SDS011;52631;42.208;24.656;2022-10-31T09:40:24;5.60;;;2.22;;
65855;SDS011;52631;42.208;24.656;2022-10-31T09:45:56;7.68;;;2.22;;
65855;SDS011;52631;42.208;24.656;2022-10-31T09:51:29;19.42;;;3.17;;
65855;SDS011;52631;42.208;24.656;2022-10-31T09:54:02;5.22;;;1.90;;
65855;SDS011;52631;42.208;24.656;2022-10-31T09:56:31;5.78;;;2.10;;
65855;SDS011;52631;42.208;24.656;2022-10-31T09:58:58;4.57;;;1.98;;
65855;SDS011;52631;42.208;24.656;2022-10-31T10:04:10;6.72;;;2.38;;
65855;SDS011;52631;42.208;24.656;2022-10-31T10:07:01;15.73;;;3.78;;
65855;SDS011;52631;42.208;24.656;2022-10-31T10:12:13;5.07;;;1.70;;
65855;SDS011;52631;42.208;24.656;2022-10-31T10:14:52;6.50;;;2.22;;
65855;SDS011;52631;42.208;24.656;2022-10-31T10:25:40;6.88;;;2.30;;
65855;SDS011;52631;42.208;24.656;2022-10-31T10:33:59;8.38;;;2.25;;
65855;SDS011;52631;42.208;24.656;2022-10-31T10:36:32;6.75;;;2.00;;
65855;SDS011;52631;42.208;24.656;2022-10-31T10:39:04;14.77;;;3.47;;
65855;SDS011;52631;42.208;24.656;2022-10-31T10:41:46;5.95;;;2.92;;
65855;SDS011;52631;42.208;24.656;2022-10-31T10:44:33;13.07;;;2.45;;
65855;SDS011;52631;42.208;24.656;2022-10-31T10:47:18;7.30;;;2.20;;
65855;SDS011;52631;42.208;24.656;2022-10-31T10:50:03;6.30;;;2.17;;
65855;SDS011;52631;42.208;24.656;2022-10-31T10:58:20;5.85;;;2.05;;
65855;SDS011;52631;42.208;24.656;2022-10-31T11:00:46;33.47;;;3.75;;
65855;SDS011;52631;42.208;24.656;2022-10-31T11:03:13;4.05;;;1.80;;
65855;SDS011;52631;42.208;24.656;2022-10-31T11:05:52;4.40;;;1.80;;
65855;SDS011;52631;42.208;24.656;2022-10-31T11:08:31;4.55;;;1.80;;
65855;SDS011;52631;42.208;24.656;2022-10-31T11:11:05;3.97;;;1.70;;
65855;SDS011;52631;42.208;24.656;2022-10-31T11:13:52;7.07;;;2.08;;
65855;SDS011;52631;42.208;24.656;2022-10-31T11:18:53;4.07;;;1.60;;
65855;SDS011;52631;42.208;24.656;2022-10-31T11:21:28;4.30;;;1.73;;
65855;SDS011;52631;42.208;24.656;2022-10-31T11:26:29;3.72;;;1.65;;
65855;SDS011;52631;42.208;24.656;2022-10-31T11:28:56;3.33;;;1.40;;
65855;SDS011;52631;42.208;24.656;2022-10-31T11:31:24;5.95;;;2.00;;
65855;SDS011;52631;42.208;24.656;2022-10-31T11:33:53;8.35;;;2.03;;
65855;SDS011;52631;42.208;24.656;2022-10-31T11:36:26;5.05;;;1.48;;
65855;SDS011;52631;42.208;24.656;2022-10-31T11:38:53;6.70;;;1.70;;
65855;SDS011;52631;42.208;24.656;2022-10-31T11:41:23;5.70;;;1.73;;
65855;SDS011;52631;42.208;24.656;2022-10-31T11:43:54;5.68;;;1.77;;
65855;SDS011;52631;42.208;24.656;2022-10-31T11:46:30;4.90;;;1.60;;
65855;SDS011;52631;42.208;24.656;2022-10-31T11:49:01;3.38;;;1.58;;
65855;SDS011;52631;42.208;24.656;2022-10-31T11:51:28;5.60;;;1.88;;
65855;SDS011;52631;42.208;24.656;2022-10-31T11:53:55;7.50;;;1.70;;
65855;SDS011;52631;42.208;24.656;2022-10-31T11:56:22;4.72;;;1.73;;
65855;SDS011;52631;42.208;24.656;2022-10-31T11:58:59;4.97;;;1.65;;
65855;SDS011;52631;42.208;24.656;2022-10-31T12:01:28;3.17;;;1.20;;
65855;SDS011;52631;42.208;24.656;2022-10-31T12:06:28;5.70;;;1.42;;
65855;SDS011;52631;42.208;24.656;2022-10-31T12:09:00;5.88;;;1.38;;
65855;SDS011;52631;42.208;24.656;2022-10-31T12:16:53;6.30;;;1.40;;
65855;SDS011;52631;42.208;24.656;2022-10-31T12:22:35;5.78;;;1.40;;
65855;SDS011;52631;42.208;24.656;2022-10-31T12:25:12;10.05;;;1.65;;
65855;SDS011;52631;42.208;24.656;2022-10-31T12:36:16;4.07;;;1.20;;
65855;SDS011;52631;42.208;24.656;2022-10-31T12:38:52;6.75;;;1.23;;
65855;SDS011;52631;42.208;24.656;2022-10-31T12:49:53;5.18;;;1.73;;
65855;SDS011;52631;42.208;24.656;2022-10-31T12:57:46;4.60;;;1.60;;
65855;SDS011;52631;42.208;24.656;2022-10-31T13:05:17;5.32;;;1.90;;
65855;SDS011;52631;42.208;24.656;2022-10-31T13:07:54;3.47;;;1.40;;
65855;SDS011;52631;42.208;24.656;2022-10-31T13:10:24;8.70;;;2.22;;
65855;SDS011;52631;42.208;24.656;2022-10-31T13:12:54;4.18;;;1.40;;
65855;SDS011;52631;42.208;24.656;2022-10-31T13:15:25;6.03;;;1.35;;
65855;SDS011;52631;42.208;24.656;2022-10-31T13:17:56;4.53;;;1.30;;
65855;SDS011;52631;42.208;24.656;2022-10-31T13:20:27;3.72;;;1.20;;
65855;SDS011;52631;42.208;24.656;2022-10-31T13:23:04;4.80;;;1.30;;
65855;SDS011;52631;42.208;24.656;2022-10-31T13:25:52;4.13;;;1.30;;
65855;SDS011;52631;42.208;24.656;2022-10-31T13:28:31;3.72;;;1.55;;
65855;SDS011;52631;42.208;24.656;2022-10-31T13:31:01;8.88;;;2.97;;
65855;SDS011;52631;42.208;24.656;2022-10-31T13:33:31;8.07;;;1.90;;
65855;SDS011;52631;42.208;24.656;2022-10-31T13:38:36;3.67;;;1.30;;
65855;SDS011;52631;42.208;24.656;2022-10-31T13:41:11;6.60;;;1.70;;
65855;SDS011;52631;42.208;24.656;2022-10-31T13:44:17;4.82;;;1.80;;
65855;SDS011;52631;42.208;24.656;2022-10-31T13:46:49;3.35;;;1.45;;
65855;SDS011;52631;42.208;24.656;2022-10-31T13:54:38;7.95;;;1.73;;
65855;SDS011;52631;42.208;24.656;2022-10-31T13:57:47;5.53;;;1.80;;
65855;SDS011;52631;42.208;24.656;2022-10-31T13:59:56;6.15;;;1.60;;
65855;SDS011;52631;42.208;24.656;2022-10-31T14:02:25;7.28;;;1.55;;
65855;SDS011;52631;42.208;24.656;2022-10-31T14:04:59;6.32;;;1.75;;
65855;SDS011;52631;42.208;24.656;2022-10-31T14:07:27;4.72;;;1.33;;
65855;SDS011;52631;42.208;24.656;2022-10-31T14:10:03;5.20;;;1.45;;
65855;SDS011;52631;42.208;24.656;2022-10-31T14:15:04;5.03;;;1.40;;
65855;SDS011;52631;42.208;24.656;2022-10-31T14:17:44;7.00;;;1.55;;
65855;SDS011;52631;42.208;24.656;2022-10-31T14:22:40;10.77;;;1.90;;
65855;SDS011;52631;42.208;24.656;2022-10-31T14:27:50;3.15;;;1.25;;
65855;SDS011;52631;42.208;24.656;2022-10-31T14:30:19;6.00;;;1.60;;
65855;SDS011;52631;42.208;24.656;2022-10-31T14:32:54;5.25;;;1.70;;
65855;SDS011;52631;42.208;24.656;2022-10-31T14:35:34;5.03;;;1.30;;
65855;SDS011;52631;42.208;24.656;2022-10-31T14:38:15;5.57;;;1.52;;
65855;SDS011;52631;42.208;24.656;2022-10-31T14:51:44;5.47;;;1.92;;
65855;SDS011;52631;42.208;24.656;2022-10-31T14:54:14;7.30;;;1.98;;
65855;SDS011;52631;42.208;24.656;2022-10-31T14:57:02;6.13;;;2.15;;
65855;SDS011;52631;42.208;24.656;2022-10-31T14:59:31;7.75;;;1.92;;
65855;SDS011;52631;42.208;24.656;2022-10-31T15:05:07;12.63;;;2.30;;
65855;SDS011;52631;42.208;24.656;2022-10-31T15:07:48;7.40;;;2.53;;
65855;SDS011;52631;42.208;24.656;2022-10-31T15:10:25;11.52;;;2.60;;
65855;SDS011;52631;42.208;24.656;2022-10-31T15:12:50;12.50;;;2.47;;
65855;SDS011;52631;42.208;24.656;2022-10-31T15:17:48;5.23;;;2.00;;
65855;SDS011;52631;42.208;24.656;2022-10-31T15:20:35;5.72;;;2.10;;
65855;SDS011;52631;42.208;24.656;2022-10-31T15:23:04;7.00;;;2.05;;
65855;SDS011;52631;42.208;24.656;2022-10-31T15:25:31;6.43;;;1.83;;
65855;SDS011;52631;42.208;24.656;2022-10-31T15:27:58;5.85;;;1.85;;
65855;SDS011;52631;42.208;24.656;2022-10-31T15:30:28;6.15;;;2.10;;
65855;SDS011;52631;42.208;24.656;2022-10-31T15:32:54;13.07;;;2.53;;
65855;SDS011;52631;42.208;24.656;2022-10-31T15:35:23;5.65;;;2.30;;
65855;SDS011;52631;42.208;24.656;2022-10-31T15:37:53;10.18;;;2.47;;
65855;SDS011;52631;42.208;24.656;2022-10-31T15:40:20;11.75;;;2.42;;
65855;SDS011;52631;42.208;24.656;2022-10-31T15:42:56;7.57;;;2.47;;
65855;SDS011;52631;42.208;24.656;2022-10-31T15:45:24;15.57;;;3.00;;
65855;SDS011;52631;42.208;24.656;2022-10-31T15:47:59;9.93;;;2.47;;
65855;SDS011;52631;42.208;24.656;2022-10-31T15:53:05;10.57;;;2.42;;
65855;SDS011;52631;42.208;24.656;2022-10-31T15:58:03;10.25;;;2.30;;
65855;SDS011;52631;42.208;24.656;2022-10-31T16:00:36;8.85;;;3.20;;
65855;SDS011;52631;42.208;24.656;2022-10-31T16:05:48;14.55;;;3.75;;
65855;SDS011;52631;42.208;24.656;2022-10-31T16:08:24;10.32;;;2.90;;
65855;SDS011;52631;42.208;24.656;2022-10-31T16:10:50;8.60;;;2.38;;
65855;SDS011;52631;42.208;24.656;2022-10-31T16:13:15;8.98;;;2.35;;
65855;SDS011;52631;42.208;24.656;2022-10-31T16:15:51;7.80;;;2.22;;
65855;SDS011;52631;42.208;24.656;2022-10-31T16:18:19;9.70;;;2.20;;
65855;SDS011;52631;42.208;24.656;2022-10-31T16:20:52;6.85;;;2.10;;
65855;SDS011;52631;42.208;24.656;2022-10-31T16:23:20;6.72;;;2.10;;
65855;SDS011;52631;42.208;24.656;2022-10-31T16:25:47;6.18;;;2.38;;
65855;SDS011;52631;42.208;24.656;2022-10-31T16:28:20;4.97;;;2.15;;
65855;SDS011;52631;42.208;24.656;2022-10-31T16:30:48;6.95;;;2.63;;
65855;SDS011;52631;42.208;24.656;2022-10-31T16:35:50;26.92;;;4.13;;
65855;SDS011;52631;42.208;24.656;2022-10-31T16:38:16;19.98;;;2.80;;
65855;SDS011;52631;42.208;24.656;2022-10-31T16:40:42;14.05;;;3.13;;
65855;SDS011;52631;42.208;24.656;2022-10-31T16:43:09;13.48;;;2.70;;
65855;SDS011;52631;42.208;24.656;2022-10-31T16:46:14;13.95;;;2.95;;
65855;SDS011;52631;42.208;24.656;2022-10-31T16:48:33;14.57;;;3.50;;
65855;SDS011;52631;42.208;24.656;2022-10-31T16:50:59;14.32;;;3.38;;
65855;SDS011;52631;42.208;24.656;2022-10-31T16:53:25;10.38;;;2.50;;
65855;SDS011;52631;42.208;24.656;2022-10-31T16:55:52;7.43;;;2.33;;
65855;SDS011;52631;42.208;24.656;2022-10-31T16:58:23;7.43;;;2.50;;
65855;SDS011;52631;42.208;24.656;2022-10-31T17:00:52;5.78;;;2.05;;
65855;SDS011;52631;42.208;24.656;2022-10-31T17:03:18;7.57;;;1.70;;
65855;SDS011;52631;42.208;24.656;2022-10-31T17:05:44;7.95;;;2.03;;
65855;SDS011;52631;42.208;24.656;2022-10-31T17:08:09;8.18;;;2.10;;
65855;SDS011;52631;42.208;24.656;2022-10-31T17:10:35;4.50;;;1.77;;